Time;durP1;ratioP1;P1;durP2;ratioP2;P2;SDS_P1;SDS_P2;PMS_P1;PMS_P2;Temp;Humidity;BMP_temperature;BMP_pressure;BME280_temperature;BME280_humidity;BME280_pressure;Samples;Min_cycle;Max_cycle;Signal;HPM_P1;HPM_P2
2022/08/29 00:00:30;;;;;;;7.70;5.10;;;;;;;17.82;100.00;99969.41;4864736;29;20026;-83
2022/08/29 00:02:58;;;;;;;6.45;4.93;;;;;;;17.71;100.00;99967.50;4848455;29;20493;-83
2022/08/29 00:05:30;;;;;;;7.68;4.65;;;;;;;17.74;100.00;99968.88;4833801;29;20041;-83
2022/08/29 00:07:58;;;;;;;10.55;5.22;;;;;;;17.68;100.00;99976.72;4850398;29;20484;-83
2022/08/29 00:10:24;;;;;;;8.15;4.90;;;;;;;17.62;100.00;99956.34;4846208;29;20044;-82
2022/08/29 00:12:50;;;;;;;8.98;4.30;;;;;;;17.69;100.00;99966.91;4863635;29;20041;-83
2022/08/29 00:15:16;;;;;;;8.43;4.70;;;;;;;17.71;100.00;99967.50;4863791;29;20037;-83
2022/08/29 00:17:42;;;;;;;8.23;5.47;;;;;;;17.77;100.00;99966.63;4864167;29;20021;-83
2022/08/29 00:20:11;;;;;;;10.30;5.93;;;;;;;17.85;100.00;99968.97;4849289;29;20110;-84
2022/08/29 00:22:36;;;;;;;9.00;5.15;;;;;;;17.70;100.00;99952.59;4849849;29;20523;-83
2022/08/29 00:25:04;;;;;;;7.03;5.10;;;;;;;17.88;100.00;99972.22;4854530;29;20124;-84
2022/08/29 00:27:31;;;;;;;7.60;4.88;;;;;;;17.88;100.00;99973.03;4851097;29;20208;-83
2022/08/29 00:29:58;;;;;;;11.45;5.20;;;;;;;17.81;100.00;99970.44;4832738;29;20040;-83
2022/08/29 00:32:24;;;;;;;9.88;5.97;;;;;;;17.77;100.00;99958.66;4847507;29;20029;-84
2022/08/29 00:34:50;;;;;;;13.50;6.72;;;;;;;17.88;100.00;99978.34;4837218;29;20404;-84
2022/08/29 00:37:16;;;;;;;11.88;5.95;;;;;;;17.77;100.00;99963.97;4851470;29;20029;-83
2022/08/29 00:39:41;;;;;;;10.30;5.32;;;;;;;17.72;100.00;99958.50;4851523;29;20037;-84
2022/08/29 00:42:07;;;;;;;8.70;4.72;;;;;;;17.70;100.00;99976.50;4848544;29;20044;-84
2022/08/29 00:44:33;;;;;;;7.50;4.43;;;;;;;17.62;100.00;99974.09;4863690;29;20507;-83
2022/08/29 00:47:04;;;;;;;8.38;3.65;;;;;;;17.61;100.00;99961.84;4862150;29;20063;-83
2022/08/29 00:49:35;;;;;;;6.55;3.60;;;;;;;17.73;100.00;99976.06;4852648;29;20055;-83
2022/08/29 00:52:27;;;;;;;4.63;3.30;;;;;;;17.70;100.00;99971.19;4844811;29;20389;-84
2022/08/29 00:54:55;;;;;;;4.60;3.45;;;;;;;17.66;100.00;99962.84;4846802;29;20042;-85
2022/08/29 00:57:22;;;;;;;4.82;3.53;;;;;;;17.74;100.00;99976.84;4846967;29;20030;-84
2022/08/29 00:59:49;;;;;;;9.18;4.47;;;;;;;17.79;100.00;99983.13;4847870;29;20149;-83
2022/08/29 01:02:18;;;;;;;6.13;4.25;;;;;;;17.59;100.00;99969.22;4829359;29;20034;-83
2022/08/29 01:04:45;;;;;;;7.15;4.00;;;;;;;17.69;100.00;99969.56;4847103;29;20637;-83
2022/08/29 01:07:19;;;;;;;9.52;5.38;;;;;;;17.68;100.00;99962.59;4863752;29;20045;-83
2022/08/29 01:09:51;;;;;;;7.53;5.68;;;;;;;17.67;100.00;99971.59;4851586;29;20034;-82
2022/08/29 01:12:19;;;;;;;8.60;6.28;;;;;;;17.62;100.00;99971.44;4855151;29;20068;-83
2022/08/29 01:14:46;;;;;;;12.40;7.50;;;;;;;17.65;100.00;99981.63;4863661;29;20039;-83
2022/08/29 01:17:19;;;;;;;12.30;7.57;;;;;;;17.61;100.00;99978.63;4849637;29;20093;-84
2022/08/29 01:19:59;;;;;;;11.38;8.20;;;;;;;17.59;100.00;99964.75;4852096;29;20054;-83
2022/08/29 01:22:55;;;;;;;10.57;7.90;;;;;;;17.68;100.00;99986.50;4848623;29;20029;-83
2022/08/29 01:25:25;;;;;;;15.20;8.23;;;;;;;17.52;100.00;99982.56;4860820;29;20451;-83
2022/08/29 01:27:58;;;;;;;16.30;10.00;;;;;;;17.56;100.00;99992.53;4852067;29;20487;-84
2022/08/29 01:30:24;;;;;;;14.85;10.13;;;;;;;17.58;100.00;99994.16;4842726;29;20031;-82
2022/08/29 01:32:50;;;;;;;15.93;10.32;;;;;;;17.56;100.00;99984.56;4865616;29;20030;-84
2022/08/29 01:35:16;;;;;;;15.57;10.32;;;;;;;17.54;100.00;99978.66;4850129;29;20041;-83
2022/08/29 01:37:42;;;;;;;19.05;10.55;;;;;;;17.60;100.00;99978.81;4851141;29;20491;-84
2022/08/29 01:40:10;;;;;;;17.25;10.65;;;;;;;17.63;100.00;99986.34;4849392;29;20058;-84
2022/08/29 01:42:36;;;;;;;10.65;6.68;;;;;;;17.56;100.00;99984.56;4848173;29;20037;-83
2022/08/29 01:45:01;;;;;;;8.80;6.47;;;;;;;17.63;100.00;99994.31;4850005;29;20044;-83
2022/08/29 01:47:33;;;;;;;9.95;5.97;;;;;;;17.48;100.00;99982.16;4852548;29;20037;-84
2022/08/29 01:50:00;;;;;;;11.38;6.28;;;;;;;17.56;100.00;99987.22;4847741;29;20037;-84
2022/08/29 01:52:27;;;;;;;11.05;7.80;;;;;;;17.60;100.00;99992.09;4852321;29;20120;-83
2022/08/29 01:54:53;;;;;;;13.32;7.25;;;;;;;17.68;100.00;100002.44;4830399;29;20194;-82
2022/08/29 01:57:19;;;;;;;14.63;6.78;;;;;;;17.70;100.00;99987.91;4864247;29;20097;-83
2022/08/29 01:59:46;;;;;;;8.05;5.25;;;;;;;17.68;100.00;100003.25;4846255;29;20040;-83
2022/08/29 02:02:19;;;;;;;9.25;5.22;;;;;;;17.60;100.00;99992.09;4829868;29;20041;-83
2022/08/29 02:04:46;;;;;;;;;;;;;;;17.68;100.00;99991.81;4849681;29;20033;-82
2022/08/29 02:07:12;;;;;;;8.05;5.07;;;;;;;17.61;100.00;99999.84;4849758;29;19927;-83
2022/08/29 02:09:40;;;;;;;6.32;4.57;;;;;;;17.58;100.00;99994.16;4848520;29;20057;-82
2022/08/29 02:12:09;;;;;;;5.88;4.47;;;;;;;17.48;100.00;99987.47;4848511;29;20042;-82
2022/08/29 02:14:36;;;;;;;9.10;5.20;;;;;;;17.50;100.00;99992.59;4847282;29;20034;-81
2022/08/29 02:17:11;;;;;;;9.23;5.95;;;;;;;17.56;100.00;99997.00;4851530;29;20034;-83
2022/08/29 02:19:38;;;;;;;10.55;6.15;;;;;;;17.59;100.00;99988.66;4846538;29;20133;-82
2022/08/29 02:22:06;;;;;;;10.75;7.22;;;;;;;17.51;100.00;99989.72;4851419;29;20038;-83
2022/08/29 02:24:32;;;;;;;15.35;8.52;;;;;;;17.45;100.00;99982.59;4851008;29;20094;-83
2022/08/29 02:27:01;;;;;;;13.75;8.30;;;;;;;17.48;100.00;99984.03;4852755;29;20416;-82
2022/08/29 02:29:28;;;;;;;12.27;8.30;;;;;;;17.23;100.00;99951.16;4849966;29;20042;-82
2022/08/29 02:31:54;;;;;;;15.20;8.20;;;;;;;17.41;100.00;99984.91;4856833;29;20101;-82
2022/08/29 02:34:22;;;;;;;15.60;10.43;;;;;;;17.43;100.00;99992.63;4847310;29;20540;-83
2022/08/29 02:36:51;;;;;;;17.45;10.70;;;;;;;17.36;100.00;99987.38;4853041;29;20029;-82
2022/08/29 02:39:20;;;;;;;23.38;11.40;;;;;;;17.42;100.00;99996.31;4866336;29;20034;-83
2022/08/29 02:41:49;;;;;;;18.10;11.23;;;;;;;17.32;100.00;99982.72;4848712;29;20592;-83
2022/08/29 02:44:19;;;;;;;15.00;10.95;;;;;;;17.36;100.00;99986.56;4845942;29;20038;-83
2022/08/29 02:46:49;;;;;;;17.55;11.75;;;;;;;17.39;100.00;99996.75;4853545;29;20052;-83
2022/08/29 02:49:16;;;;;;;19.42;12.63;;;;;;;17.37;100.00;100004.13;4850434;29;20049;-84
2022/08/29 02:51:46;;;;;;;17.63;11.82;;;;;;;17.39;100.00;99991.44;4868305;29;20045;-84
2022/08/29 02:54:13;;;;;;;21.45;12.80;;;;;;;17.32;100.00;99990.69;4863966;29;20045;-83
2022/08/29 02:56:40;;;;;;;20.92;12.15;;;;;;;17.27;100.00;99978.06;4862532;29;20033;-83
2022/08/29 02:59:07;;;;;;;20.90;12.88;;;;;;;17.36;100.00;99982.06;4853225;29;20048;-84
2022/08/29 03:01:33;;;;;;;21.20;13.57;;;;;;;17.40;100.00;99990.41;4852197;29;20065;-83
2022/08/29 03:04:00;;;;;;;21.45;12.85;;;;;;;17.40;100.00;99987.75;4852200;29;20403;-84
2022/08/29 03:06:26;;;;;;;20.88;13.82;;;;;;;17.40;100.00;99998.38;4851323;29;20033;-83
2022/08/29 03:08:52;;;;;;;21.17;14.20;;;;;;;17.39;100.00;99991.44;4843830;29;20056;-83
2022/08/29 03:11:23;;;;;;;20.20;14.63;;;;;;;17.38;100.00;99998.59;4851927;29;20041;-83
2022/08/29 03:13:56;;;;;;;22.00;13.90;;;;;;;17.43;100.00;99997.94;4853566;29;20093;-84
2022/08/29 03:16:26;;;;;;;18.75;14.00;;;;;;;17.39;100.00;99999.41;4863691;29;20258;-83
2022/08/29 03:19:02;;;;;;;21.73;14.23;;;;;;;17.33;100.00;99993.13;4854285;29;20076;-84
2022/08/29 03:21:35;;;;;;;;;;;;;;;17.49;100.00;100007.72;4852209;29;20040;-83
2022/08/29 03:24:01;;;;;;;15.70;12.55;;;;;;;17.45;100.00;100003.84;4851541;29;19915;-83
2022/08/29 03:26:28;;;;;;;18.45;12.57;;;;;;;17.38;100.00;100000.44;4848654;29;20048;-83
2022/08/29 03:28:54;;;;;;;17.35;11.98;;;;;;;17.35;100.00;100000.88;4848244;29;20087;-85
2022/08/29 03:31:24;;;;;;;15.38;11.63;;;;;;;17.40;100.00;99993.06;4850227;29;20030;-82
2022/08/29 03:33:49;;;;;;;19.00;12.65;;;;;;;17.46;100.00;100007.31;4849323;29;20369;-83
2022/08/29 03:36:17;;;;;;;26.63;17.05;;;;;;;17.41;100.00;100000.81;4849046;29;20033;-83
2022/08/29 03:38:46;;;;;;;20.98;16.25;;;;;;;17.44;100.00;100002.22;4832023;29;20038;-83
2022/08/29 03:41:26;;;;;;;22.77;16.35;;;;;;;17.54;100.00;100007.88;4847337;29;20038;-84
2022/08/29 03:43:56;;;;;;;27.20;15.90;;;;;;;17.48;100.00;100002.59;4849389;29;20105;-83
2022/08/29 03:46:24;;;;;;;23.27;15.23;;;;;;;17.44;100.00;99994.25;4847642;29;20037;-83
2022/08/29 03:48:52;;;;;;;22.00;15.65;;;;;;;17.50;100.00;99995.25;4847831;29;20034;-83
2022/08/29 03:51:21;;;;;;;19.25;15.65;;;;;;;17.47;100.00;99999.13;4844695;29;20072;-84
2022/08/29 03:53:46;;;;;;;22.10;16.42;;;;;;;17.39;100.00;100007.38;4851611;29;20409;-83
2022/08/29 03:56:12;;;;;;;23.73;16.60;;;;;;;17.34;100.00;100000.03;4830777;29;20042;-83
2022/08/29 03:58:38;;;;;;;21.13;16.27;;;;;;;17.33;100.00;99993.13;4855067;29;20030;-83
2022/08/29 04:01:04;;;;;;;20.60;14.93;;;;;;;17.41;100.00;99995.53;4850396;29;20072;-83
2022/08/29 04:03:30;;;;;;;20.05;15.80;;;;;;;17.46;100.00;100002.81;4851309;29;20036;-83
2022/08/29 04:05:56;;;;;;;24.83;17.05;;;;;;;17.44;100.00;99999.56;4849574;29;20107;-83
2022/08/29 04:08:21;;;;;;;22.67;16.88;;;;;;;17.31;100.00;99975.81;4850166;29;20041;-83
2022/08/29 04:10:47;;;;;;;24.52;18.02;;;;;;;17.33;100.00;99989.66;4852360;29;20094;-83
2022/08/29 04:13:17;;;;;;;24.00;17.60;;;;;;;17.30;100.00;99990.91;4845217;29;20037;-83
2022/08/29 04:15:47;;;;;;;24.88;17.45;;;;;;;17.36;100.00;99997.19;4852096;29;20549;-84
2022/08/29 04:18:14;;;;;;;23.23;16.08;;;;;;;17.38;100.00;99995.94;4851737;29;20101;-83
2022/08/29 04:20:43;;;;;;;19.58;15.88;;;;;;;17.37;100.00;99998.81;4851850;29;20033;-82
2022/08/29 04:23:12;;;;;;;19.00;14.70;;;;;;;17.30;100.00;99998.06;4851706;29;20038;-83
2022/08/29 04:25:40;;;;;;;19.02;14.35;;;;;;;17.28;100.00;100008.88;4846644;29;20033;-82
2022/08/29 04:28:07;;;;;;;19.55;14.63;;;;;;;17.31;100.00;100005.78;4846360;29;20480;-82
2022/08/29 04:30:34;;;;;;;17.55;13.00;;;;;;;17.27;100.00;99989.47;4850301;29;20125;-83
2022/08/29 04:33:00;;;;;;;20.45;13.43;;;;;;;17.25;100.00;99993.38;4847995;29;20034;-83
2022/08/29 04:35:25;;;;;;;16.95;12.90;;;;;;;17.18;100.00;100000.56;4847886;29;20097;-82
2022/08/29 04:37:51;;;;;;;20.80;12.10;;;;;;;17.17;100.00;99994.47;4847711;29;20049;-82
2022/08/29 04:40:20;;;;;;;19.15;12.50;;;;;;;17.04;100.00;99983.94;4862050;29;20433;-83
2022/08/29 04:42:46;;;;;;;18.33;13.07;;;;;;;17.11;100.00;100003.28;4863147;29;20037;-83
2022/08/29 04:45:16;;;;;;;20.60;12.75;;;;;;;17.20;100.00;100012.59;4864029;29;20127;-85
2022/08/29 04:47:43;;;;;;;16.00;12.23;;;;;;;17.20;100.00;100009.16;4862445;29;20118;-83
2022/08/29 04:50:13;;;;;;;18.13;11.15;;;;;;;17.20;100.00;100014.47;4848967;29;20033;-83
2022/08/29 04:52:39;;;;;;;17.63;12.55;;;;;;;17.13;100.00;100014.50;4849895;29;20388;-83
2022/08/29 04:55:06;;;;;;;15.93;11.98;;;;;;;17.17;100.00;100015.69;4849465;29;20575;-83
2022/08/29 04:57:33;;;;;;;20.77;12.45;;;;;;;17.17;100.00;100015.69;4851717;29;20029;-83
2022/08/29 04:59:59;;;;;;;22.35;13.13;;;;;;;17.01;100.00;100009.06;4848997;29;20769;-83
2022/08/29 05:02:25;;;;;;;18.27;12.57;;;;;;;17.09;100.00;100013.28;4847314;29;20040;-82
2022/08/29 05:04:55;;;;;;;17.42;12.13;;;;;;;17.08;100.00;100019.59;4847003;29;20034;-83
2022/08/29 05:07:24;;;;;;;18.05;11.60;;;;;;;17.09;100.00;100029.19;4851679;29;20038;-83
2022/08/29 05:09:57;;;;;;;22.38;12.15;;;;;;;17.02;100.00;100026.59;4852425;29;20048;-84
2022/08/29 05:12:24;;;;;;;16.90;10.70;;;;;;;16.86;100.00;100025.19;4848896;29;20068;-82
2022/08/29 05:14:52;;;;;;;14.57;10.18;;;;;;;16.86;100.00;100025.19;4850545;29;20029;-82
2022/08/29 05:17:17;;;;;;;15.88;9.55;;;;;;;16.68;100.00;100008.16;4849683;29;20493;-82
2022/08/29 05:19:43;;;;;;;14.23;8.13;;;;;;;16.78;100.00;100031.56;4848791;29;20053;-82
2022/08/29 05:22:13;;;;;;;14.23;8.07;;;;;;;16.81;100.00;100032.97;4862403;29;20061;-82
2022/08/29 05:24:38;;;;;;;16.65;11.20;;;;;;;16.75;100.00;100039.94;4853413;29;20034;-84
2022/08/29 05:27:09;;;;;;;15.30;10.20;;;;;;;16.73;100.00;100034.03;4845369;29;20097;-83
2022/08/29 05:29:44;;;;;;;17.48;9.75;;;;;;;16.74;100.00;100032.22;4849565;29;20491;-82
2022/08/29 05:32:13;;;;;;;13.50;9.13;;;;;;;16.66;100.00;100020.81;4852834;29;22082;-83
2022/08/29 05:34:39;;;;;;;17.45;9.90;;;;;;;16.83;100.00;100042.38;4849926;29;20026;-83
2022/08/29 05:37:08;;;;;;;17.10;10.00;;;;;;;16.78;100.00;100028.09;4832737;29;20035;-84
2022/08/29 05:39:35;;;;;;;14.68;9.63;;;;;;;16.94;100.00;100043.53;4846038;29;20397;-83
2022/08/29 05:42:01;;;;;;;14.80;9.02;;;;;;;16.91;100.00;100033.34;4849925;29;20029;-83
2022/08/29 05:44:28;;;;;;;12.05;8.10;;;;;;;17.05;100.00;100050.03;4845329;29;20541;-83
2022/08/29 05:46:54;;;;;;;17.00;9.52;;;;;;;16.96;100.00;100038.84;4851432;29;20069;-83
2022/08/29 05:49:20;;;;;;;12.45;8.65;;;;;;;16.90;100.00;100026.44;4862779;29;20052;-83
2022/08/29 05:51:46;;;;;;;13.50;9.82;;;;;;;16.95;100.00;100037.19;4865285;29;21514;-83
2022/08/29 05:54:12;;;;;;;14.45;9.95;;;;;;;17.01;100.00;100040.06;4867201;29;20048;-83
2022/08/29 05:56:38;;;;;;;16.55;10.27;;;;;;;16.98;100.00;100031.50;4854481;29;20033;-85
2022/08/29 05:59:04;;;;;;;11.75;9.27;;;;;;;17.08;100.00;100046.13;4837913;29;20183;-84
2022/08/29 06:01:32;;;;;;;13.15;9.02;;;;;;;17.06;100.00;100042.88;4851261;29;20044;-83
2022/08/29 06:03:59;;;;;;;14.30;9.63;;;;;;;17.13;100.00;100048.97;4854110;29;20061;-83
2022/08/29 06:06:27;;;;;;;16.77;9.20;;;;;;;17.09;100.00;100039.78;4867775;29;20156;-83
2022/08/29 06:08:54;;;;;;;14.75;10.30;;;;;;;17.11;100.00;100043.88;4850186;29;20463;-83
2022/08/29 06:11:22;;;;;;;16.92;9.15;;;;;;;17.01;100.00;100026.78;4851220;29;20442;-84
2022/08/29 06:13:47;;;;;;;15.77;10.35;;;;;;;17.06;100.00;100048.19;4848294;29;20397;-83
2022/08/29 06:16:16;;;;;;;15.55;10.00;;;;;;;17.16;100.00;100045.06;4853346;29;20044;-82
2022/08/29 06:18:42;;;;;;;14.57;10.38;;;;;;;17.19;100.00;100052.59;4845378;29;20497;-82
2022/08/29 06:21:09;;;;;;;10.90;8.13;;;;;;;17.17;100.00;100041.38;4851000;29;20034;-82
2022/08/29 06:23:35;;;;;;;16.67;8.95;;;;;;;17.24;100.00;100053.59;4839105;29;20053;-82
2022/08/29 06:26:02;;;;;;;12.98;9.20;;;;;;;17.31;100.00;100044.78;4855374;29;20066;-82
2022/08/29 06:28:29;;;;;;;15.35;10.02;;;;;;;17.31;100.00;100044.78;4851099;29;20498;-82
2022/08/29 06:30:55;;;;;;;12.90;9.15;;;;;;;17.39;100.00;100045.34;4866783;29;20536;-82
2022/08/29 06:33:21;;;;;;;17.23;9.27;;;;;;;17.27;100.00;100018.66;4848886;29;20038;-83
2022/08/29 06:35:47;;;;;;;11.82;8.38;;;;;;;17.37;100.00;100038.63;4864443;29;20980;-82
2022/08/29 06:38:13;;;;;;;14.45;8.70;;;;;;;17.31;100.00;100039.50;4830539;29;20073;-82
2022/08/29 06:40:39;;;;;;;13.38;8.27;;;;;;;17.42;100.00;100049.41;4849019;29;20081;-82
2022/08/29 06:43:04;;;;;;;14.98;8.45;;;;;;;17.35;100.00;100032.72;4865283;29;20041;-83
2022/08/29 06:45:30;;;;;;;11.85;8.18;;;;;;;17.55;100.00;100040.53;4849931;29;20399;-82
2022/08/29 06:47:55;;;;;;;10.02;8.10;;;;;;;17.53;100.00;100039.94;4850648;29;20405;-81
2022/08/29 06:50:21;;;;;;;12.23;7.45;;;;;;;17.70;100.00;100043.66;4847687;29;20033;-81
2022/08/29 06:52:47;;;;;;;11.32;6.93;;;;;;;17.84;100.00;100041.72;4851785;29;20551;-81
2022/08/29 06:55:13;;;;;;;8.25;5.97;;;;;;;17.94;100.00;100040.41;4852397;29;20037;-82
2022/08/29 06:57:44;;;;;;;10.18;5.15;;;;;;;18.03;100.00;100048.94;4845710;29;20023;-82
2022/08/29 07:00:12;;;;;;;9.25;6.35;;;;;;;18.12;100.00;100048.44;4851889;29;20492;-84
2022/08/29 07:02:39;;;;;;;10.15;6.68;;;;;;;18.19;100.00;100048.38;4849153;29;20036;-84
2022/08/29 07:05:06;;;;;;;6.88;6.15;;;;;;;18.11;100.00;100046.81;4849574;29;20129;-84
2022/08/29 07:07:33;;;;;;;9.55;5.80;;;;;;;18.02;100.00;100040.16;4848568;29;20038;-84
2022/08/29 07:09:59;;;;;;;9.00;5.70;;;;;;;17.96;100.00;100039.16;4845656;29;20494;-84
2022/08/29 07:12:25;;;;;;;12.32;6.07;;;;;;;18.06;100.00;100038.69;4851324;29;20046;-85
2022/08/29 07:14:50;;;;;;;10.15;6.00;;;;;;;18.17;100.00;100039.78;4848703;29;20029;-85
2022/08/29 07:17:16;;;;;;;5.90;5.10;;;;;;;18.22;100.00;100053.25;4856351;29;20053;-84
2022/08/29 07:19:42;;;;;;;9.07;6.05;;;;;;;17.97;100.00;100039.97;4852282;29;20057;-84
2022/08/29 07:22:08;;;;;;;9.82;6.50;;;;;;;17.88;100.00;100042.09;4847239;29;20045;-84
2022/08/29 07:24:37;;;;;;;10.98;5.60;;;;;;;18.05;100.00;100050.34;4851300;29;20052;-83
2022/08/29 07:27:03;;;;;;;7.47;5.47;;;;;;;17.92;100.00;100053.09;4868139;29;20061;-85
2022/08/29 07:29:28;;;;;;;5.25;4.75;;;;;;;17.68;100.00;100053.69;4852708;29;20092;-82
2022/08/29 07:31:54;;;;;;;8.98;4.88;;;;;;;17.75;100.00;100048.34;4849064;29;20033;-84
2022/08/29 07:34:20;;;;;;;9.60;4.70;;;;;;;17.69;100.00;100050.00;4849031;29;20037;-82
2022/08/29 07:36:46;;;;;;;8.02;4.30;;;;;;;17.79;100.00;100059.34;4863530;29;20063;-81
2022/08/29 07:39:15;;;;;;;7.88;4.10;;;;;;;17.87;100.00;100058.25;4847307;29;20049;-82
2022/08/29 07:41:43;;;;;;;7.45;4.63;;;;;;;17.78;100.00;100061.19;4844346;29;20038;-81
2022/08/29 07:44:09;;;;;;;6.25;4.55;;;;;;;17.98;100.00;100060.19;4848876;29;20030;-81
2022/08/29 07:46:36;;;;;;;5.45;4.55;;;;;;;18.07;100.00;100050.94;4846373;29;20030;-82
2022/08/29 07:49:06;;;;;;;10.32;4.43;;;;;;;18.04;100.00;100051.38;4855598;29;20033;-83
2022/08/29 07:51:32;;;;;;;7.70;4.50;;;;;;;18.14;100.00;100053.53;4847985;29;20041;-82
2022/08/29 07:53:58;;;;;;;8.65;4.18;;;;;;;18.03;100.00;100049.75;4847565;29;20030;-83
2022/08/29 07:56:30;;;;;;;9.15;4.53;;;;;;;18.13;100.00;100058.03;4847795;29;20072;-82
2022/08/29 07:58:57;;;;;;;6.85;4.25;;;;;;;18.30;100.00;100061.97;4842441;29;20918;-82
2022/08/29 08:01:23;;;;;;;7.05;4.35;;;;;;;18.28;100.00;100056.88;4850148;29;20033;-82
2022/08/29 08:03:50;;;;;;;6.68;4.35;;;;;;;18.44;100.00;100054.66;4850355;29;20636;-82
2022/08/29 08:06:18;;;;;;;12.27;5.40;;;;;;;18.32;100.00;100055.41;4851103;29;20053;-83
2022/08/29 08:08:44;;;;;;;9.15;4.43;;;;;;;18.39;100.00;100056.13;4861643;29;20462;-82
2022/08/29 08:11:16;;;;;;;6.93;4.47;;;;;;;18.73;100.00;100065.59;4850467;29;20069;-83
2022/08/29 08:13:43;;;;;;;7.75;4.20;;;;;;;18.69;100.00;100068.69;4834788;29;20049;-83
2022/08/29 08:16:11;;;;;;;8.00;5.32;;;;;;;18.45;100.00;100072.22;4867808;29;20026;-81
2022/08/29 08:18:41;;;;;;;7.22;5.28;;;;;;;18.25;100.00;100057.31;4848218;29;20421;-82
2022/08/29 08:21:08;;;;;;;6.03;3.17;;;;;;;18.12;100.00;100053.75;4835546;29;20034;-82
2022/08/29 08:23:35;;;;;;;5.70;3.20;;;;;;;18.16;100.00;100069.25;4864702;29;20036;-81
2022/08/29 08:26:01;;;;;;;6.25;3.13;;;;;;;18.10;100.00;100050.50;4849523;29;20166;-82
2022/08/29 08:28:29;;;;;;;7.82;3.45;;;;;;;17.85;100.00;100064.59;4845450;29;20055;-81
2022/08/29 08:30:55;;;;;;;4.10;2.58;;;;;;;17.94;100.00;100064.31;4851870;29;20041;-81
2022/08/29 08:33:21;;;;;;;6.53;3.33;;;;;;;17.85;100.00;100072.53;4852534;29;20393;-81
2022/08/29 08:35:47;;;;;;;9.70;3.38;;;;;;;17.96;100.00;100064.91;4850148;29;20033;-81
2022/08/29 08:38:15;;;;;;;7.03;3.25;;;;;;;17.73;100.00;100066.34;4845622;29;20141;-82
2022/08/29 08:40:49;;;;;;;9.32;4.15;;;;;;;17.75;100.00;100064.28;4844399;29;20112;-80
2022/08/29 08:43:22;;;;;;;7.68;3.05;;;;;;;17.92;100.00;100058.41;4850711;29;20041;-80
2022/08/29 08:45:48;;;;;;;6.32;3.97;;;;;;;18.12;100.00;100064.38;4844799;29;20037;-83
2022/08/29 08:48:21;;;;;;;7.78;3.55;;;;;;;18.25;100.00;100074.06;4850263;29;20476;-83
2022/08/29 08:50:50;;;;;;;8.40;3.60;;;;;;;18.36;100.00;100075.19;4846148;29;20045;-82
2022/08/29 08:53:42;;;;;;;6.55;4.07;;;;;;;18.21;100.00;100083.53;4846522;29;20631;-82
2022/08/29 08:56:24;;;;;;;6.57;3.55;;;;;;;18.12;100.00;100075.03;4867527;29;20064;-82
2022/08/29 08:58:59;;;;;;;7.55;3.22;;;;;;;17.94;100.00;100066.97;4856290;29;20073;-82
2022/08/29 09:01:38;;;;;;;4.75;2.95;;;;;;;17.80;100.00;100077.69;4850523;29;20480;-81
2022/08/29 09:04:36;;;;;;;5.95;2.72;;;;;;;17.67;100.00;100078.63;4844878;29;20063;-82
2022/08/29 09:07:32;;;;;;;6.15;3.10;;;;;;;17.80;100.00;100080.34;4847221;29;20041;-82
2022/08/29 09:10:18;;;;;;;4.78;3.00;;;;;;;17.70;100.00;100077.41;4851595;29;20111;-82
2022/08/29 09:12:50;;;;;;;3.67;3.03;;;;;;;17.91;100.00;100086.00;4853971;29;20053;-81
2022/08/29 09:15:21;;;;;;;6.93;3.20;;;;;;;18.23;100.00;100080.63;4836440;29;20556;-82
2022/08/29 09:17:56;;;;;;;8.25;3.50;;;;;;;18.33;100.00;100075.63;4845363;29;20026;-83
2022/08/29 09:20:31;;;;;;;5.38;3.10;;;;;;;18.60;100.00;100054.06;4846037;29;20042;-82
2022/08/29 09:23:09;;;;;;;4.85;3.22;;;;;;;18.77;100.00;100082.72;4851300;29;20488;-83
2022/08/29 09:25:35;;;;;;;5.03;3.30;;;;;;;18.53;100.00;100071.94;4853263;29;20378;-83
2022/08/29 09:28:07;;;;;;;6.85;3.75;;;;;;;18.55;100.00;100077.84;4844259;29;20499;-82
2022/08/29 09:30:35;;;;;;;6.00;3.40;;;;;;;18.35;100.00;100056.78;4845845;29;20420;-81
2022/08/29 09:33:10;;;;;;;3.17;2.88;;;;;;;18.61;100.00;100078.81;4849523;29;20036;-82
2022/08/29 09:35:36;;;;;;;5.63;3.42;;;;;;;18.77;100.00;100085.38;4842838;29;20029;-80
2022/08/29 09:38:22;;;;;;;3.58;3.10;;;;;;;18.97;100.00;100079.81;4860607;29;20494;-82
2022/08/29 09:41:00;;;;;;;5.35;4.00;;;;;;;19.22;100.00;100086.88;4849760;29;20112;-80
2022/08/29 09:43:30;;;;;;;5.05;3.70;;;;;;;19.40;100.00;100083.34;4844005;29;20392;-81
2022/08/29 09:46:11;;;;;;;6.30;3.97;;;;;;;19.47;100.00;100092.06;4853181;29;20146;-82
2022/08/29 09:48:43;;;;;;;6.07;4.70;;;;;;;19.38;100.00;100096.06;4844979;29;20053;-81
2022/08/29 09:51:28;;;;;;;9.10;5.30;;;;;;;19.54;100.00;100099.94;4851769;29;20058;-82
2022/08/29 09:54:14;;;;;;;7.10;4.60;;;;;;;19.80;100.00;100072.06;4844118;29;20046;-82
2022/08/29 09:57:04;;;;;;;5.25;3.80;;;;;;;19.94;100.00;100087.88;4845636;29;20052;-82
2022/08/29 09:59:38;;;;;;;6.75;4.70;;;;;;;19.65;100.00;100087.69;4842114;29;20041;-81
2022/08/29 10:02:19;;;;;;;5.45;4.13;;;;;;;19.70;100.00;100085.16;4844455;29;20037;-83
2022/08/29 10:04:51;;;;;;;6.85;4.00;;;;;;;19.36;100.00;100088.34;4851481;29;20476;-82
2022/08/29 10:07:24;;;;;;;7.45;4.53;;;;;;;18.95;100.00;100079.22;4831353;29;20089;-81
2022/08/29 10:09:59;;;;;;;;;;;;;;;18.79;100.00;100085.97;4852023;29;20476;-80
2022/08/29 10:12:54;;;;;;;7.60;4.50;;;;;;;18.60;100.00;100096.59;4849258;29;19934;-80
2022/08/29 10:15:26;;;;;;;6.38;4.65;;;;;;;18.58;100.00;100095.22;4860512;29;20037;-80
2022/08/29 10:18:19;;;;;;;7.18;4.57;;;;;;;18.70;100.00;100096.09;4846049;29;20122;-80
2022/08/29 10:20:56;;;;;;;5.18;4.05;;;;;;;19.00;100.00;100090.03;4845374;29;20033;-81
2022/08/29 10:23:40;;;;;;;6.47;3.97;;;;;;;19.06;100.00;100093.63;4846855;29;20109;-80
2022/08/29 10:26:25;;;;;;;6.05;4.00;;;;;;;19.01;100.00;100080.19;4849183;29;20062;-79
2022/08/29 10:29:08;;;;;;;5.55;3.58;;;;;;;18.65;100.00;100093.28;4845274;29;20046;-79
2022/08/29 10:32:32;;;;;;;5.15;3.45;;;;;;;18.61;100.00;100097.44;4841576;29;20044;-80
2022/08/29 10:35:15;;;;;;;6.05;3.58;;;;;;;18.70;100.00;100096.09;4804914;29;20046;-80
2022/08/29 10:37:58;;;;;;;6.28;3.42;;;;;;;18.74;100.00;100096.47;4848336;29;20038;-80
2022/08/29 10:40:27;;;;;;;6.88;4.15;;;;;;;18.76;100.00;100094.38;4851316;29;20046;-80
2022/08/29 10:43:09;;;;;;;6.18;3.58;;;;;;;18.94;100.00;100089.06;4848458;29;20055;-81
2022/08/29 10:45:41;;;;;;;3.50;3.20;;;;;;;18.76;100.00;100097.06;4850746;29;20523;-81
2022/08/29 10:48:24;;;;;;;7.28;3.50;;;;;;;18.73;100.00;100094.84;4851802;29;20060;-81
2022/08/29 10:51:30;;;;;;;3.65;2.78;;;;;;;18.67;100.00;100102.69;4850536;29;20113;-81
2022/08/29 10:54:22;;;;;;;4.70;3.28;;;;;;;18.72;100.00;100098.53;4847801;29;20129;-80
2022/08/29 10:56:49;;;;;;;6.43;3.85;;;;;;;18.52;100.00;100081.75;4836742;29;20083;-79
2022/08/29 10:59:54;;;;;;;6.90;3.20;;;;;;;18.32;100.00;100089.13;4849827;29;20034;-79
2022/08/29 11:02:28;;;;;;;7.30;3.25;;;;;;;18.29;100.00;100102.84;4843804;29;20560;-79
2022/08/29 11:04:55;;;;;;;;;;;;;;;18.73;100.00;100097.50;4845639;29;20560;-79
2022/08/29 11:07:24;;;;;;;3.85;3.30;;;;;;;19.09;100.00;100099.31;4847791;29;19920;-79
2022/08/29 11:10:00;;;;;;;5.95;3.08;;;;;;;19.42;100.00;100089.25;4849709;29;20048;-80
2022/08/29 11:12:45;;;;;;;4.93;3.08;;;;;;;19.61;100.00;100089.19;4859072;29;20145;-80
2022/08/29 11:15:19;;;;;;;4.47;3.42;;;;;;;19.53;100.00;100088.47;4850583;29;20050;-80
2022/08/29 11:17:52;;;;;;;3.47;3.10;;;;;;;19.30;100.00;100083.91;4850837;29;20445;-79
2022/08/29 11:20:23;;;;;;;6.80;3.38;;;;;;;19.33;100.00;100087.97;4850158;29;20137;-79
2022/08/29 11:22:59;;;;;;;4.40;2.70;;;;;;;19.52;100.00;100092.19;4848022;29;20038;-79
2022/08/29 11:25:26;;;;;;;3.58;3.22;;;;;;;19.47;100.00;100092.06;4845715;29;20053;-80
2022/08/29 11:28:03;;;;;;;6.47;3.05;;;;;;;19.62;100.00;100098.78;4853101;29;20544;-81